DLH7HY EDDF-EPWA
Flight info
| Callsign | DLH7HY |
|---|---|
| Flight time | N/A |
| Altitude | 37000 |
| Route | SULUS6F SULUS L984 OKG DCT BALTU DCT LEGAZ DCT LAGAR DCT OKENO Q277 AGAVA |
| Aircraft | A320/M-SDE2E3FGIJ1LORWXYZ/HB1 |
Departure
| Time | 2026-04-16 13:20 |
|---|---|
| Airport | Frankfurt Main Airport (EDDF) |
Arrival
| Time | N/A |
|---|---|
| Airport | Warsaw Chopin Airport (EPWA) |
| Time | Latitude | Longitude | Altitude | Speed | Heading |
|---|---|---|---|---|---|
| 2026-04-16 12:41 | 50.04752 | 8.56883 | 365 ft | 0 kts | 294° |
| 2026-04-16 13:07 | 50.04750 | 8.56890 | 364 ft | 4 kts | 294° |
| 2026-04-16 13:07 | 50.04740 | 8.56929 | 364 ft | 4 kts | 295° |
| 2026-04-16 13:08 | 50.04730 | 8.56965 | 363 ft | 4 kts | 265° |
| 2026-04-16 13:08 | 50.04741 | 8.56996 | 361 ft | 4 kts | 209° |
| 2026-04-16 13:08 | 50.04759 | 8.57010 | 361 ft | 4 kts | 204° |
| 2026-04-16 13:08 | 50.04784 | 8.57027 | 358 ft | 4 kts | 205° |
| 2026-04-16 13:09 | 50.04795 | 8.57035 | 358 ft | 0 kts | 205° |
| 2026-04-16 13:12 | 50.04781 | 8.57025 | 359 ft | 5 kts | 205° |
| 2026-04-16 13:12 | 50.04735 | 8.56991 | 361 ft | 10 kts | 205° |
| 2026-04-16 13:13 | 50.04668 | 8.56943 | 358 ft | 11 kts | 205° |
| 2026-04-16 13:13 | 50.04589 | 8.56902 | 361 ft | 11 kts | 192° |
| 2026-04-16 13:13 | 50.04528 | 8.56881 | 359 ft | 8 kts | 192° |
| 2026-04-16 13:13 | 50.04472 | 8.56861 | 359 ft | 8 kts | 193° |
| 2026-04-16 13:14 | 50.04409 | 8.56844 | 363 ft | 10 kts | 188° |
| 2026-04-16 13:14 | 50.04339 | 8.56826 | 360 ft | 11 kts | 190° |
| 2026-04-16 13:14 | 50.04276 | 8.56873 | 360 ft | 11 kts | 106° |
| 2026-04-16 13:14 | 50.04296 | 8.56986 | 359 ft | 10 kts | 69° |
| 2026-04-16 13:15 | 50.04317 | 8.57075 | 362 ft | 7 kts | 69° |
| 2026-04-16 13:15 | 50.04332 | 8.57137 | 363 ft | 5 kts | 69° |
| 2026-04-16 13:15 | 50.04351 | 8.57214 | 362 ft | 11 kts | 70° |
| 2026-04-16 13:15 | 50.04385 | 8.57358 | 366 ft | 16 kts | 69° |
| 2026-04-16 13:16 | 50.04421 | 8.57511 | 363 ft | 14 kts | 69° |
| 2026-04-16 13:16 | 50.04449 | 8.57626 | 366 ft | 10 kts | 69° |
| 2026-04-16 13:16 | 50.04473 | 8.57725 | 369 ft | 10 kts | 69° |
| 2026-04-16 13:16 | 50.04500 | 8.57838 | 370 ft | 12 kts | 70° |
| 2026-04-16 13:17 | 50.04532 | 8.57974 | 367 ft | 15 kts | 69° |
| 2026-04-16 13:17 | 50.04575 | 8.58146 | 365 ft | 19 kts | 69° |
| 2026-04-16 13:17 | 50.04616 | 8.58322 | 371 ft | 16 kts | 70° |
| 2026-04-16 13:17 | 50.04645 | 8.58449 | 374 ft | 9 kts | 70° |
| 2026-04-16 13:18 | 50.04653 | 8.58536 | 369 ft | 7 kts | 110° |
| 2026-04-16 13:18 | 50.04617 | 8.58576 | 369 ft | 5 kts | 157° |
| 2026-04-16 13:18 | 50.04593 | 8.58591 | 371 ft | 2 kts | 160° |
| 2026-04-16 13:18 | 50.04577 | 8.58599 | 370 ft | 4 kts | 160° |
| 2026-04-16 13:19 | 50.04547 | 8.58616 | 371 ft | 3 kts | 160° |
| 2026-04-16 13:19 | 50.04517 | 8.58630 | 371 ft | 6 kts | 172° |
| 2026-04-16 13:19 | 50.04488 | 8.58597 | 370 ft | 5 kts | 240° |
| 2026-04-16 13:19 | 50.04471 | 8.58528 | 370 ft | 15 kts | 249° |
| 2026-04-16 13:20 | 50.04359 | 8.58061 | 370 ft | 82 kts | 249° |
| 2026-04-16 13:20 | 50.04091 | 8.56932 | 363 ft | 138 kts | 249° |
| 2026-04-16 13:20 | 50.03707 | 8.55313 | 501 ft | 170 kts | 249° |
| 2026-04-16 13:20 | 50.03303 | 8.53594 | 1213 ft | 170 kts | 250° |
| 2026-04-16 13:21 | 50.02878 | 8.51831 | 1774 ft | 184 kts | 249° |
| 2026-04-16 13:21 | 50.02049 | 8.50186 | 1986 ft | 211 kts | 212° |
| 2026-04-16 13:21 | 50.00620 | 8.49386 | 2509 ft | 224 kts | 199° |
| 2026-04-16 13:21 | 49.99115 | 8.48978 | 3591 ft | 221 kts | 175° |
| 2026-04-16 13:22 | 49.97718 | 8.49959 | 4492 ft | 229 kts | 135° |
| 2026-04-16 13:22 | 49.96805 | 8.52011 | 5337 ft | 233 kts | 122° |
| 2026-04-16 13:22 | 49.95995 | 8.54219 | 6113 ft | 241 kts | 120° |
| 2026-04-16 13:22 | 49.95150 | 8.56608 | 6497 ft | 264 kts | 120° |
| 2026-04-16 13:23 | 49.94326 | 8.59274 | 7010 ft | 281 kts | 108° |
| 2026-04-16 13:23 | 49.93992 | 8.62289 | 7769 ft | 288 kts | 93° |
| 2026-04-16 13:23 | 49.93871 | 8.65410 | 8598 ft | 291 kts | 98° |
| 2026-04-16 13:23 | 49.93299 | 8.68430 | 9430 ft | 294 kts | 117° |
| 2026-04-16 13:24 | 49.92150 | 8.71054 | 10238 ft | 295 kts | 135° |
| 2026-04-16 13:24 | 49.90553 | 8.73114 | 10738 ft | 309 kts | 146° |
| 2026-04-16 13:24 | 49.88845 | 8.75344 | 11005 ft | 333 kts | 135° |
| 2026-04-16 13:24 | 49.87437 | 8.78263 | 11566 ft | 344 kts | 121° |
| 2026-04-16 13:25 | 49.86252 | 8.81529 | 12249 ft | 351 kts | 120° |
| 2026-04-16 13:25 | 49.85049 | 8.84852 | 12932 ft | 356 kts | 120° |
| 2026-04-16 13:25 | 49.83827 | 8.88225 | 13619 ft | 362 kts | 120° |
| 2026-04-16 13:25 | 49.82585 | 8.91646 | 14263 ft | 367 kts | 120° |
| 2026-04-16 13:26 | 49.81326 | 8.95110 | 14887 ft | 371 kts | 120° |
| 2026-04-16 13:26 | 49.80050 | 8.98611 | 15501 ft | 375 kts | 120° |
| 2026-04-16 13:26 | 49.78756 | 9.02151 | 16117 ft | 379 kts | 120° |
| 2026-04-16 13:26 | 49.77451 | 9.05724 | 16721 ft | 383 kts | 120° |
| 2026-04-16 13:27 | 49.76276 | 9.09443 | 17350 ft | 388 kts | 111° |
| 2026-04-16 13:27 | 49.75516 | 9.13466 | 17953 ft | 392 kts | 103° |
| 2026-04-16 13:27 | 49.74876 | 9.17583 | 18536 ft | 396 kts | 104° |
| 2026-04-16 13:27 | 49.74216 | 9.21740 | 19060 ft | 400 kts | 104° |
| 2026-04-16 13:28 | 49.73540 | 9.25927 | 19569 ft | 404 kts | 104° |
| 2026-04-16 13:28 | 49.72851 | 9.30150 | 20069 ft | 407 kts | 104° |
| 2026-04-16 13:28 | 49.72153 | 9.34405 | 20580 ft | 411 kts | 104° |
| 2026-04-16 13:28 | 49.71446 | 9.38710 | 21079 ft | 415 kts | 104° |
| 2026-04-16 13:29 | 49.70734 | 9.43043 | 21577 ft | 418 kts | 104° |
| 2026-04-16 13:29 | 49.70017 | 9.47403 | 22048 ft | 421 kts | 104° |
| 2026-04-16 13:29 | 49.69291 | 9.51812 | 22555 ft | 425 kts | 104° |
| 2026-04-16 13:29 | 49.68559 | 9.56250 | 23052 ft | 428 kts | 104° |
| 2026-04-16 13:30 | 49.67841 | 9.60726 | 23513 ft | 431 kts | 101° |
| 2026-04-16 13:30 | 49.67473 | 9.65320 | 23935 ft | 434 kts | 91° |
| 2026-04-16 13:30 | 49.67592 | 9.69976 | 24318 ft | 435 kts | 81° |
| 2026-04-16 13:30 | 49.68195 | 9.74544 | 24704 ft | 435 kts | 72° |
| 2026-04-16 13:31 | 49.68995 | 9.79001 | 25072 ft | 438 kts | 72° |
| 2026-04-16 13:31 | 49.69802 | 9.83543 | 25461 ft | 440 kts | 72° |
| 2026-04-16 13:31 | 49.70609 | 9.88125 | 25827 ft | 443 kts | 72° |
| 2026-04-16 13:31 | 49.71542 | 9.92666 | 26189 ft | 443 kts | 65° |
| 2026-04-16 13:32 | 49.72889 | 9.96936 | 26556 ft | 442 kts | 56° |
| 2026-04-16 13:32 | 49.74605 | 10.00857 | 26919 ft | 441 kts | 50° |
| 2026-04-16 13:32 | 49.76403 | 10.04716 | 27302 ft | 444 kts | 50° |
| 2026-04-16 13:32 | 49.78211 | 10.08606 | 27620 ft | 447 kts | 50° |
| 2026-04-16 13:33 | 49.80031 | 10.12533 | 27952 ft | 450 kts | 50° |
| 2026-04-16 13:33 | 49.81853 | 10.16490 | 28284 ft | 453 kts | 50° |
| 2026-04-16 13:33 | 49.83681 | 10.20482 | 28629 ft | 456 kts | 50° |
| 2026-04-16 13:33 | 49.85519 | 10.24498 | 28956 ft | 458 kts | 50° |
| 2026-04-16 13:34 | 49.87366 | 10.28537 | 29285 ft | 461 kts | 50° |
| 2026-04-16 13:34 | 49.89223 | 10.32601 | 29603 ft | 463 kts | 50° |
| 2026-04-16 13:34 | 49.91094 | 10.36689 | 29946 ft | 466 kts | 50° |
| 2026-04-16 13:34 | 49.92976 | 10.40801 | 30253 ft | 468 kts | 50° |
| 2026-04-16 13:35 | 49.94865 | 10.44938 | 30533 ft | 471 kts | 50° |
| 2026-04-16 13:35 | 49.96763 | 10.49102 | 30762 ft | 474 kts | 50° |
| 2026-04-16 13:35 | 49.98667 | 10.53286 | 31014 ft | 476 kts | 50° |
| 2026-04-16 13:35 | 50.00575 | 10.57490 | 31327 ft | 476 kts | 50° |
| 2026-04-16 13:36 | 50.02479 | 10.61695 | 31684 ft | 475 kts | 50° |
| 2026-04-16 13:36 | 50.04348 | 10.65925 | 32066 ft | 476 kts | 53° |
| 2026-04-16 13:36 | 50.05872 | 10.70515 | 32440 ft | 481 kts | 63° |
| 2026-04-16 13:36 | 50.06916 | 10.75479 | 32811 ft | 485 kts | 73° |
| 2026-04-16 13:37 | 50.07454 | 10.80677 | 33168 ft | 488 kts | 83° |
| 2026-04-16 13:37 | 50.07531 | 10.85963 | 33514 ft | 489 kts | 88° |
| 2026-04-16 13:37 | 50.07532 | 10.91261 | 33865 ft | 489 kts | 88° |
| 2026-04-16 13:37 | 50.07529 | 10.96540 | 34206 ft | 488 kts | 88° |
| 2026-04-16 13:38 | 50.07521 | 11.01830 | 34518 ft | 488 kts | 88° |
| 2026-04-16 13:38 | 50.07511 | 11.07108 | 34816 ft | 487 kts | 88° |
| 2026-04-16 13:38 | 50.07502 | 11.12373 | 35102 ft | 487 kts | 88° |
| 2026-04-16 13:38 | 50.07490 | 11.17577 | 35372 ft | 486 kts | 88° |
| 2026-04-16 13:39 | 50.07475 | 11.22900 | 35645 ft | 486 kts | 88° |
| 2026-04-16 13:39 | 50.07458 | 11.28079 | 35911 ft | 485 kts | 88° |
| 2026-04-16 13:39 | 50.07440 | 11.33333 | 36172 ft | 484 kts | 88° |
| 2026-04-16 13:39 | 50.07420 | 11.38576 | 36415 ft | 484 kts | 88° |
| 2026-04-16 13:40 | 50.07398 | 11.43883 | 36666 ft | 484 kts | 88° |
| 2026-04-16 13:40 | 50.07371 | 11.49042 | 36895 ft | 483 kts | 89° |
| 2026-04-16 13:40 | 50.07338 | 11.54333 | 37186 ft | 482 kts | 89° |
| 2026-04-16 13:41 | 50.07269 | 11.64650 | 37232 ft | 478 kts | 89° |
| 2026-04-16 13:41 | 50.07208 | 11.74991 | 37235 ft | 477 kts | 89° |
| 2026-04-16 13:42 | 50.07136 | 11.85309 | 37233 ft | 477 kts | 89° |
| 2026-04-16 13:42 | 50.07055 | 11.95648 | 37229 ft | 477 kts | 89° |
| 2026-04-16 13:43 | 50.06962 | 12.05957 | 37228 ft | 475 kts | 89° |
| 2026-04-16 13:43 | 50.06846 | 12.16232 | 37223 ft | 475 kts | 89° |
| 2026-04-16 13:44 | 50.06712 | 12.26502 | 37211 ft | 475 kts | 90° |
| 2026-04-16 13:44 | 50.06573 | 12.36777 | 37207 ft | 474 kts | 90° |
| 2026-04-16 13:44 | 50.06752 | 12.41876 | 37214 ft | 470 kts | 76° |
| 2026-04-16 13:45 | 50.07679 | 12.46712 | 37215 ft | 465 kts | 64° |
| 2026-04-16 13:45 | 50.10164 | 12.56003 | 37210 ft | 465 kts | 64° |
| 2026-04-16 13:46 | 50.12680 | 12.65287 | 37214 ft | 465 kts | 64° |
| 2026-04-16 13:46 | 50.15184 | 12.74587 | 37217 ft | 466 kts | 64° |
| 2026-04-16 13:47 | 50.17674 | 12.83920 | 37232 ft | 466 kts | 64° |
| 2026-04-16 13:47 | 50.20149 | 12.93263 | 37225 ft | 466 kts | 65° |
| 2026-04-16 13:48 | 50.22606 | 13.02622 | 37222 ft | 466 kts | 65° |
| 2026-04-16 13:48 | 50.25067 | 13.12000 | 37214 ft | 466 kts | 65° |
| 2026-04-16 13:49 | 50.27511 | 13.21313 | 37192 ft | 467 kts | 65° |
| 2026-04-16 13:49 | 50.29712 | 13.29904 | 37193 ft | 467 kts | 66° |